Time;durP1;ratioP1;P1;durP2;ratioP2;P2;SDS_P1;SDS_P2;PMS_P1;PMS_P2;Temp;Humidity;BMP_temperature;BMP_pressure;BME280_temperature;BME280_humidity;BME280_pressure;Samples;Min_cycle;Max_cycle;Signal;HPM_P1;HPM_P2
2022/11/06 00:00:59;;;;;;;8.17;4.47;;;4.80;99.90;3.90;100512;;;;588307;243;24051;-81
2022/11/06 00:03:28;;;;;;;9.82;3.60;;;4.70;99.90;3.90;100522;;;;574409;244;35207;-81
2022/11/06 00:08:42;;;;;;;10.63;4.83;;;4.70;99.90;3.90;100523;;;;579176;244;24085;-82
2022/11/06 00:11:12;;;;;;;8.07;3.97;;;4.70;99.90;3.90;100525;;;;575987;244;24062;-81
2022/11/06 00:13:43;;;;;;;8.20;4.40;;;4.70;99.90;3.90;100522;;;;579149;244;24082;-83
2022/11/06 00:16:08;;;;;;;7.17;4.23;;;4.70;99.90;3.90;100525;;;;578720;244;24082;-84
2022/11/06 00:18:36;;;;;;;10.17;4.73;;;4.70;99.90;3.80;100515;;;;579197;244;24193;-83
2022/11/06 00:21:07;;;;;;;8.13;4.53;;;4.70;99.90;3.80;100520;;;;587972;243;24075;-83
2022/11/06 00:23:39;;;;;;;7.37;4.20;;;4.70;99.90;3.70;100524;;;;578502;244;24163;-81
2022/11/06 00:26:09;;;;;;;10.23;4.50;;;4.60;99.90;3.80;100526;;;;578420;244;24085;-80
2022/11/06 00:28:37;;;;;;;9.17;4.90;;;4.60;99.90;3.70;100528;;;;578692;244;24076;-80
2022/11/06 00:31:07;;;;;;;11.33;4.37;;;4.60;99.90;3.70;100519;;;;588399;244;24056;-83
2022/11/06 00:33:35;;;;;;;6.50;4.20;;;4.60;99.90;3.70;100523;;;;579153;244;24125;-84
2022/11/06 00:36:06;;;;;;;7.80;4.10;;;4.50;99.90;3.70;100524;;;;581950;244;24081;-83
2022/11/06 00:38:35;;;;;;;12.97;5.03;;;4.50;99.90;3.70;100527;;;;582034;244;24099;-82
2022/11/06 00:41:06;;;;;;;9.63;4.90;;;4.50;99.90;3.60;100524;;;;588218;244;25091;-83
2022/11/06 00:43:34;;;;;;;8.37;5.20;;;4.50;99.90;3.60;100522;;;;578927;244;24121;-83
2022/11/06 00:46:08;;;;;;;11.27;4.77;;;4.40;99.90;3.60;100515;;;;578957;244;25131;-82
2022/11/06 00:48:39;;;;;;;10.33;4.77;;;4.40;99.90;3.60;100514;;;;579251;244;24166;-80
2022/11/06 00:51:04;;;;;;;12.87;4.67;;;4.40;99.90;3.50;100514;;;;578920;244;24117;-80
2022/11/06 00:53:32;;;;;;;7.23;3.53;;;4.40;99.90;3.50;100513;;;;587542;244;24077;-80
2022/11/06 00:56:05;;;;;;;10.50;3.70;;;4.30;99.90;3.50;100509;;;;587749;244;24106;-79
2022/11/06 00:58:33;;;;;;;8.37;4.17;;;4.30;99.90;3.50;100505;;;;580192;243;24057;-80
2022/11/06 01:01:07;;;;;;;9.57;3.43;;;4.30;99.90;3.40;100509;;;;582587;244;24078;-80
2022/11/06 01:03:36;;;;;;;9.50;4.07;;;4.20;99.90;3.40;100510;;;;579740;244;24052;-80
2022/11/06 01:06:08;;;;;;;8.07;4.03;;;4.20;99.90;3.40;100510;;;;579509;244;24083;-78
2022/11/06 01:08:33;;;;;;;9.90;3.87;;;4.20;99.90;3.40;100514;;;;565862;247;24109;-79
2022/11/06 01:11:10;;;;;;;10.30;3.80;;;4.30;99.90;3.40;100501;;;;579348;244;24065;-78
2022/11/06 01:13:34;;;;;;;8.90;3.90;;;4.30;99.90;3.40;100507;;;;578965;244;24129;-80
2022/11/06 01:16:02;;;;;;;7.33;3.60;;;4.30;99.90;3.40;100507;;;;588499;243;24058;-78
2022/11/06 01:18:30;;;;;;;8.77;4.20;;;4.30;99.90;3.50;100503;;;;579377;244;24070;-78
2022/11/06 01:20:58;;;;;;;5.90;3.40;;;4.30;99.90;3.60;100511;;;;588455;243;24060;-81
2022/11/06 01:23:26;;;;;;;10.13;4.10;;;4.40;99.90;3.60;100511;;;;566616;249;24126;-80
2022/11/06 01:25:57;;;;;;;10.00;3.90;;;4.40;99.90;3.70;100508;;;;588581;243;24110;-83
2022/11/06 01:28:28;;;;;;;10.67;3.83;;;4.50;99.90;3.70;100502;;;;579699;244;24116;-79
2022/11/06 01:30:56;;;;;;;6.43;3.50;;;4.50;99.90;3.80;100494;;;;579322;244;24079;-78
2022/11/06 01:33:21;;;;;;;5.77;3.10;;;4.60;99.90;3.80;100500;;;;578877;244;24144;-82
2022/11/06 01:35:49;;;;;;;6.87;3.17;;;4.60;99.90;3.80;100498;;;;578950;244;24071;-80
2022/11/06 01:38:17;;;;;;;9.57;3.67;;;4.60;99.90;3.80;100513;;;;566205;249;24178;-79
2022/11/06 01:40:45;;;;;;;6.27;3.23;;;4.60;99.90;3.80;100512;;;;578875;244;24048;-80
2022/11/06 01:43:26;;;;;;;7.07;3.23;;;4.70;99.90;3.90;100503;;;;581493;244;24084;-81
2022/11/06 01:45:56;;;;;;;6.17;3.23;;;4.70;99.90;3.90;100498;;;;577607;244;24085;-82
2022/11/06 01:48:24;;;;;;;5.23;3.40;;;4.70;99.90;3.80;100513;;;;578309;244;24072;-83
2022/11/06 01:50:52;;;;;;;6.50;3.53;;;4.60;99.90;3.80;100510;;;;578783;244;24076;-79
2022/11/06 01:53:21;;;;;;;5.60;3.10;;;4.70;99.90;3.80;100513;;;;578684;244;24064;-83
2022/11/06 01:55:49;;;;;;;9.23;4.00;;;4.60;99.90;3.80;100515;;;;582004;244;24129;-83
2022/11/06 01:58:17;;;;;;;8.20;3.73;;;4.60;99.90;3.80;100519;;;;579132;244;24104;-80
2022/11/06 02:00:49;;;;;;;6.37;3.20;;;4.60;99.90;3.80;100513;;;;586767;244;24072;-83
2022/11/06 02:03:13;;;;;;;6.93;3.40;;;4.60;99.90;3.80;100508;;;;578826;244;24093;-79
2022/11/06 02:05:41;;;;;;;6.23;3.50;;;4.60;99.90;3.80;100512;;;;588172;244;24085;-83
2022/11/06 02:08:09;;;;;;;8.90;3.50;;;4.60;99.90;3.80;100518;;;;579276;242;24077;-82
2022/11/06 02:10:37;;;;;;;6.97;3.90;;;4.60;99.90;3.80;100509;;;;580624;243;24156;-78
2022/11/06 02:13:43;;;;;;;7.17;3.30;;;4.60;99.90;3.80;100518;;;;589078;243;24110;-81
2022/11/06 02:16:38;;;;;;;6.40;3.37;;;4.60;99.90;3.80;100511;;;;580069;244;24078;-81
2022/11/06 02:19:37;;;;;;;8.00;3.40;;;4.60;99.90;3.70;100520;;;;588575;244;24075;-78
2022/11/06 02:22:10;;;;;;;5.57;3.50;;;4.50;99.90;3.70;100515;;;;579652;244;24141;-78
2022/11/06 02:24:56;;;;;;;6.90;3.63;;;4.50;99.90;3.70;100516;;;;578898;244;24104;-80
2022/11/06 02:27:24;;;;;;;10.63;3.70;;;4.50;99.90;3.60;100511;;;;579394;244;24078;-79
2022/11/06 02:30:10;;;;;;;5.77;3.37;;;4.50;99.90;3.60;100508;;;;578955;244;24085;-77
2022/11/06 02:32:50;;;;;;;5.67;3.50;;;4.50;99.90;3.60;100509;;;;579389;244;24091;-78
2022/11/06 02:35:30;;;;;;;6.77;3.57;;;4.40;99.90;3.60;100504;;;;582119;244;24105;-82
2022/11/06 02:37:58;;;;;;;8.40;4.20;;;4.50;99.90;3.60;100509;;;;587403;244;24150;-79
2022/11/06 02:40:26;;;;;;;10.87;3.67;;;4.50;99.90;3.70;100501;;;;565969;249;24082;-80
2022/11/06 02:42:54;;;;;;;8.97;3.87;;;4.50;99.90;3.70;100510;;;;579466;244;24059;-78
2022/11/06 02:45:22;;;;;;;11.07;3.90;;;4.50;99.90;3.80;100505;;;;579218;244;24203;-82
2022/11/06 02:47:50;;;;;;;7.30;4.03;;;4.60;99.90;3.80;100508;;;;581901;244;24090;-79
2022/11/06 02:50:23;;;;;;;9.20;3.83;;;4.50;99.90;3.80;100503;;;;579091;244;24091;-79
2022/11/06 02:52:57;;;;;;;5.93;4.30;;;4.60;99.90;3.80;100502;;;;579084;244;24129;-81
2022/11/06 02:55:31;;;;;;;10.23;4.00;;;4.60;99.90;3.80;100494;;;;578994;244;24066;-83
2022/11/06 02:57:59;;;;;;;6.53;3.90;;;4.60;99.90;3.80;100498;;;;578438;244;25125;-80
2022/11/06 03:00:30;;;;;;;6.73;4.30;;;4.60;99.90;3.80;100507;;;;565397;249;24133;-79
2022/11/06 03:02:58;;;;;;;7.10;3.70;;;4.60;99.90;3.80;100500;;;;578866;244;24082;-78
2022/11/06 03:05:35;;;;;;;9.83;4.07;;;4.60;99.90;3.70;100493;;;;578565;244;24088;-78
2022/11/06 03:08:24;;;;;;;13.17;4.53;;;4.60;99.90;3.70;100491;;;;578958;244;24093;-78
2022/11/06 03:11:17;;;;;;;7.37;3.90;;;4.50;99.90;3.60;100492;;;;578762;244;24067;-77
2022/11/06 03:13:53;;;;;;;11.27;4.20;;;4.40;99.90;3.60;100506;;;;578686;244;24076;-78
2022/11/06 03:16:58;;;;;;;7.30;4.97;;;4.40;99.90;3.50;100490;;;;587766;244;24117;-77
2022/11/06 03:19:45;;;;;;;8.30;4.73;;;4.30;99.90;3.40;100494;;;;579161;244;24083;-79
2022/11/06 03:22:13;;;;;;;13.03;6.87;;;4.30;99.90;3.40;100492;;;;578092;243;24116;-78
2022/11/06 03:24:59;;;;;;;11.77;5.20;;;4.20;99.90;3.40;100493;;;;579704;244;24080;-77
2022/11/06 03:27:41;;;;;;;10.37;4.70;;;4.20;99.90;3.30;100497;;;;572560;244;24068;-77
2022/11/06 03:30:09;;;;;;;10.20;5.10;;;4.10;99.90;3.30;100497;;;;579283;244;24180;-78
2022/11/06 03:32:40;;;;;;;8.63;5.03;;;4.10;99.90;3.20;100496;;;;579260;244;24062;-77
2022/11/06 03:35:23;;;;;;;7.60;5.70;;;4.00;99.90;3.20;100491;;;;565691;249;24098;-79
2022/11/06 03:38:03;;;;;;;10.67;5.73;;;4.00;99.90;3.10;100493;;;;582120;244;24099;-76
2022/11/06 03:40:31;;;;;;;11.27;5.70;;;3.90;99.90;3.10;100489;;;;579371;244;24111;-78
2022/11/06 03:42:59;;;;;;;11.37;6.60;;;3.90;99.90;3.10;100499;;;;579298;244;24090;-79
2022/11/06 03:45:27;;;;;;;9.37;5.57;;;3.90;99.90;3.00;100498;;;;579278;244;24063;-78
2022/11/06 03:48:07;;;;;;;12.17;6.67;;;3.90;99.90;3.00;100504;;;;587962;243;24053;-82
2022/11/06 03:50:37;;;;;;;11.67;6.27;;;3.80;99.90;3.00;100502;;;;570288;244;24110;-77
2022/11/06 03:53:15;;;;;;;10.43;6.47;;;3.80;99.90;3.00;100506;;;;578710;244;24126;-78
2022/11/06 03:55:45;;;;;;;11.00;6.77;;;3.80;99.90;2.90;100511;;;;578716;244;24079;-77
2022/11/06 03:58:19;;;;;;;10.43;6.90;;;3.80;99.90;2.90;100515;;;;578823;244;24056;-79
2022/11/06 04:00:46;;;;;;;11.93;7.17;;;3.70;99.90;2.90;100512;;;;566115;248;24192;-77
2022/11/06 04:03:26;;;;;;;9.23;7.17;;;3.70;99.90;2.80;100510;;;;578819;244;24105;-77
2022/11/06 04:05:56;;;;;;;12.03;6.97;;;3.70;99.90;2.80;100510;;;;578925;244;24086;-76
2022/11/06 04:13:57;;;;;;;10.27;6.90;;;3.60;99.90;2.80;100508;;;;581556;244;24164;-78
2022/11/06 04:16:26;;;;;;;11.97;7.83;;;3.70;99.90;2.80;100506;;;;579039;244;24064;-77
2022/11/06 04:18:53;;;;;;;9.57;8.00;;;3.60;99.90;2.80;100503;;;;578696;244;24119;-78
2022/11/06 04:21:43;;;;;;;12.50;8.03;;;3.70;99.90;2.80;100503;;;;587607;244;24059;-78
2022/11/06 04:27:14;;;;;;;10.13;7.90;;;3.70;99.90;2.80;100505;;;;578720;244;24048;-77
2022/11/06 04:29:57;;;;;;;11.17;7.87;;;3.70;99.90;2.80;100487;;;;587822;244;24044;-78
2022/11/06 04:32:27;;;;;;;10.57;7.80;;;3.60;99.90;2.80;100487;;;;579530;243;24058;-77
2022/11/06 04:35:22;;;;;;;10.53;7.73;;;3.60;99.90;2.70;100484;;;;580033;244;24073;-77
2022/11/06 04:37:56;;;;;;;13.53;8.27;;;3.60;99.90;2.70;100480;;;;579931;243;24065;-78
2022/11/06 04:40:52;;;;;;;10.70;8.37;;;3.50;99.90;2.70;100476;;;;579704;244;24052;-78
2022/11/06 04:43:27;;;;;;;13.07;8.23;;;3.50;99.90;2.70;100482;;;;579591;244;24073;-83
2022/11/06 04:45:53;;;;;;;10.67;8.03;;;3.50;99.90;2.60;100482;;;;579249;244;24044;-81
2022/11/06 04:48:21;;;;;;;14.83;7.83;;;3.40;99.90;2.60;100484;;;;579624;244;25126;-78
2022/11/06 04:50:52;;;;;;;10.13;8.07;;;3.40;99.90;2.60;100481;;;;579399;244;24056;-77
2022/11/06 04:53:21;;;;;;;9.10;8.10;;;3.40;99.90;2.50;100486;;;;579211;244;24083;-78
2022/11/06 04:55:51;;;;;;;9.80;7.53;;;3.30;99.90;2.50;100485;;;;579336;244;24055;-78
2022/11/06 04:58:24;;;;;;;9.90;8.30;;;3.30;99.90;2.50;100486;;;;579357;244;24056;-77
2022/11/06 05:00:47;;;;;;;15.40;8.87;;;3.30;99.90;2.40;100484;;;;566087;249;24086;-78
2022/11/06 05:03:18;;;;;;;12.77;9.90;;;3.30;99.90;2.40;100487;;;;579089;244;24078;-77
2022/11/06 05:05:43;;;;;;;9.43;8.27;;;3.20;99.90;2.40;100474;;;;579164;244;24122;-77
2022/11/06 05:08:14;;;;;;;10.40;8.37;;;3.20;99.90;2.30;100484;;;;587985;243;24091;-77
2022/11/06 05:10:42;;;;;;;11.87;8.27;;;3.20;99.90;2.20;100477;;;;581858;244;24070;-77
2022/11/06 05:13:10;;;;;;;10.70;8.60;;;3.10;99.90;2.20;100479;;;;578916;244;24070;-77
2022/11/06 05:15:40;;;;;;;11.73;8.43;;;3.00;99.90;2.10;100480;;;;579185;244;24055;-78
2022/11/06 05:18:06;;;;;;;13.52;9.95;;;3.00;99.90;2.10;100485;;;;573373;244;46047;-78
2022/11/06 05:20:33;;;;;;;10.43;8.40;;;3.00;99.90;2.00;100485;;;;587588;244;24061;-77
2022/11/06 05:23:01;;;;;;;10.23;9.17;;;2.90;99.90;2.00;100491;;;;578796;244;24099;-78
2022/11/06 05:25:33;;;;;;;16.40;11.50;;;2.90;99.90;2.00;100489;;;;573680;244;35165;-78
2022/11/06 05:27:59;;;;;;;15.10;10.80;;;2.90;99.90;2.00;100493;;;;578625;244;24056;-78
2022/11/06 05:30:27;;;;;;;17.00;10.40;;;2.90;99.90;2.00;100495;;;;574750;244;24068;-78
2022/11/06 05:32:55;;;;;;;13.83;9.67;;;2.90;99.90;2.10;100499;;;;587616;244;24123;-79
2022/11/06 05:35:23;;;;;;;12.73;9.70;;;2.90;99.90;2.10;100505;;;;588051;244;24052;-78
2022/11/06 05:37:51;;;;;;;13.47;9.23;;;3.00;99.90;2.10;100519;;;;588098;244;24054;-78
2022/11/06 05:40:20;;;;;;;12.90;10.00;;;3.00;99.90;2.10;100519;;;;579350;244;24074;-78
2022/11/06 05:42:48;;;;;;;11.63;9.33;;;3.00;99.90;2.20;100511;;;;588085;244;24041;-78
2022/11/06 05:45:16;;;;;;;12.47;9.73;;;3.00;99.90;2.20;100505;;;;589688;242;24069;-78
2022/11/06 05:47:44;;;;;;;15.10;11.00;;;3.00;99.90;2.20;100515;;;;589143;243;24043;-77
2022/11/06 05:50:12;;;;;;;16.60;10.70;;;3.10;99.90;2.20;100514;;;;588861;243;24091;-78
2022/11/06 05:52:41;;;;;;;14.03;10.43;;;3.10;99.90;2.20;100516;;;;588760;243;24147;-77
2022/11/06 05:55:12;;;;;;;15.43;11.00;;;3.10;99.90;2.20;100511;;;;588566;243;24039;-78
2022/11/06 05:57:37;;;;;;;15.10;10.53;;;3.10;99.90;2.30;100522;;;;577332;244;25131;-79
2022/11/06 06:00:05;;;;;;;15.20;11.53;;;3.10;99.90;2.20;100511;;;;588566;243;24032;-78
2022/11/06 06:02:33;;;;;;;16.47;12.20;;;3.10;99.90;2.20;100518;;;;579319;244;24092;-82
2022/11/06 06:05:01;;;;;;;15.20;12.00;;;3.10;99.90;2.20;100519;;;;579013;242;24060;-79
2022/11/06 06:07:29;;;;;;;17.77;11.57;;;3.10;99.90;2.20;100515;;;;587856;244;24064;-78
2022/11/06 06:09:57;;;;;;;19.00;11.37;;;3.10;99.90;2.20;100518;;;;588007;243;25095;-78
2022/11/06 06:12:25;;;;;;;17.37;12.07;;;3.10;99.90;2.20;100515;;;;578902;244;24068;-78
2022/11/06 06:14:53;;;;;;;13.33;11.50;;;3.00;99.90;2.20;100519;;;;588034;244;24072;-79
2022/11/06 06:17:21;;;;;;;14.07;11.40;;;3.00;99.90;2.20;100524;;;;587989;243;24059;-78
2022/11/06 06:19:49;;;;;;;17.17;12.80;;;3.00;99.90;2.20;100525;;;;578340;244;24060;-80
2022/11/06 06:22:17;;;;;;;20.83;12.87;;;3.10;99.90;2.30;100526;;;;587747;244;24076;-83
2022/11/06 06:24:46;;;;;;;18.60;12.33;;;3.20;99.90;2.40;100527;;;;587634;244;24098;-78
2022/11/06 06:27:14;;;;;;;18.80;13.50;;;3.10;99.90;2.40;100517;;;;587748;244;24062;-80
2022/11/06 06:29:43;;;;;;;22.00;13.83;;;3.40;99.90;2.60;100522;;;;587737;244;24142;-79
2022/11/06 06:32:11;;;;;;;20.80;14.20;;;3.40;99.90;2.70;100528;;;;588154;244;24058;-79
2022/11/06 06:34:39;;;;;;;18.97;13.83;;;3.50;99.90;2.80;100527;;;;587824;244;24043;-81
2022/11/06 06:37:11;;;;;;;16.60;14.20;;;3.60;99.90;2.90;100535;;;;588219;244;24053;-81
2022/11/06 06:39:35;;;;;;;21.83;14.70;;;3.60;99.90;3.00;100535;;;;578652;244;24072;-81
2022/11/06 06:42:03;;;;;;;20.00;14.87;;;3.70;99.90;3.10;100529;;;;588124;244;24100;-81
2022/11/06 06:44:31;;;;;;;20.13;14.70;;;3.90;99.90;3.30;100534;;;;579155;244;24050;-79
2022/11/06 06:46:59;;;;;;;18.43;14.93;;;4.00;99.90;3.50;100530;;;;588163;244;24085;-79
2022/11/06 06:49:27;;;;;;;19.23;15.67;;;4.20;99.90;3.60;100528;;;;588149;244;24048;-83
2022/11/06 06:51:55;;;;;;;17.77;10.95;;;4.40;99.90;3.80;100524;;;;582932;244;35248;-82
2022/11/06 06:54:23;;;;;;;12.63;8.43;;;4.50;99.90;3.90;100533;;;;588161;244;24048;-82
2022/11/06 06:56:50;;;;;;;14.20;9.97;;;4.60;99.90;4.00;100533;;;;589635;242;24124;-81
2022/11/06 06:59:18;;;;;;;11.63;9.20;;;4.80;99.90;4.20;100534;;;;580249;244;24055;-81
2022/11/06 07:01:47;;;;;;;14.57;11.53;;;4.90;99.90;4.30;100540;;;;588939;243;25113;-81
2022/11/06 07:04:14;;;;;;;16.30;11.87;;;5.10;99.90;4.30;100540;;;;588739;244;24120;-83
2022/11/06 07:06:42;;;;;;;20.63;12.87;;;5.10;99.90;4.40;100545;;;;579303;242;24086;-82
2022/11/06 07:09:10;;;;;;;15.07;12.40;;;5.20;99.90;4.40;100550;;;;588438;243;24059;-83
2022/11/06 07:11:38;;;;;;;15.47;12.00;;;5.20;99.90;4.40;100549;;;;579387;244;24125;-82
2022/11/06 07:14:06;;;;;;;17.07;12.70;;;5.20;99.90;4.30;100554;;;;579285;244;24072;-83
2022/11/06 07:16:34;;;;;;;17.47;11.53;;;5.20;99.90;4.30;100551;;;;588061;243;24106;-79
2022/11/06 07:19:02;;;;;;;17.27;12.67;;;5.10;99.90;4.40;100555;;;;587882;243;24052;-83
2022/11/06 07:21:30;;;;;;;13.60;11.13;;;5.10;99.90;4.40;100551;;;;588049;243;24077;-81
2022/11/06 07:23:58;;;;;;;13.70;12.30;;;5.10;99.90;4.40;100548;;;;587961;243;24056;-80
2022/11/06 07:26:26;;;;;;;13.40;11.90;;;5.10;99.90;4.40;100558;;;;588044;243;24075;-79
2022/11/06 07:28:54;;;;;;;12.80;11.20;;;5.20;99.90;4.50;100561;;;;587904;243;24094;-79
2022/11/06 07:31:22;;;;;;;12.97;11.67;;;5.20;99.90;4.50;100567;;;;587947;243;24063;-78
2022/11/06 07:33:50;;;;;;;14.57;11.93;;;5.30;99.90;4.50;100553;;;;587682;244;24067;-78
2022/11/06 07:36:18;;;;;;;13.30;10.90;;;5.30;99.90;4.50;100561;;;;587413;244;24098;-78
2022/11/06 07:38:46;;;;;;;13.80;11.47;;;5.30;99.90;4.50;100566;;;;588058;244;24068;-81
2022/11/06 07:41:14;;;;;;;12.30;11.10;;;5.30;99.90;4.50;100558;;;;588059;244;24097;-79
2022/11/06 07:43:42;;;;;;;13.43;12.13;;;5.30;99.90;4.50;100564;;;;587985;244;24088;-79
2022/11/06 07:46:09;;;;;;;13.47;11.53;;;5.30;99.90;4.50;100557;;;;579133;244;24059;-77
2022/11/06 07:48:38;;;;;;;12.70;11.00;;;5.30;99.90;4.60;100573;;;;579070;244;24062;-78
2022/11/06 07:51:05;;;;;;;13.67;11.07;;;5.40;99.90;4.70;100566;;;;587920;244;24115;-78
2022/11/06 07:53:33;;;;;;;12.83;10.97;;;5.40;99.90;4.70;100565;;;;578963;244;24066;-80
2022/11/06 07:56:01;;;;;;;12.27;10.53;;;5.50;99.90;4.80;100560;;;;579095;244;24083;-78
2022/11/06 07:58:29;;;;;;;14.47;10.57;;;5.60;99.90;4.90;100565;;;;579111;244;24063;-77
2022/11/06 08:00:57;;;;;;;9.53;8.40;;;5.70;99.90;4.90;100560;;;;588052;244;24065;-79
2022/11/06 08:03:28;;;;;;;8.80;6.43;;;5.80;99.90;5.00;100566;;;;588093;242;24089;-77
2022/11/06 08:05:54;;;;;;;7.60;6.40;;;5.80;99.90;5.10;100575;;;;578869;244;24154;-76
2022/11/06 08:08:22;;;;;;;9.07;5.77;;;5.90;99.90;5.20;100576;;;;580380;243;24074;-78
2022/11/06 08:10:54;;;;;;;5.87;4.80;;;6.10;99.90;5.50;100577;;;;579777;244;24055;-79
2022/11/06 08:13:18;;;;;;;8.17;5.47;;;6.60;99.90;5.70;100575;;;;566324;249;24147;-78
2022/11/06 08:15:46;;;;;;;7.53;4.83;;;6.50;99.90;6.20;100581;;;;579728;244;24122;-79
2022/11/06 08:18:14;;;;;;;6.10;5.03;;;7.10;99.90;7.10;100578;;;;588283;243;24101;-79
2022/11/06 08:20:42;;;;;;;8.63;6.90;;;7.90;99.90;8.40;100587;;;;588549;243;24054;-78
2022/11/06 08:23:10;;;;;;;7.63;6.27;;;9.30;99.90;10.30;100600;;;;588164;243;24066;-78
2022/11/06 08:25:38;;;;;;;8.50;7.47;;;11.10;99.90;12.30;100597;;;;579113;244;24068;-78
2022/11/06 08:28:06;;;;;;;7.07;6.33;;;13.10;99.90;14.40;100611;;;;578980;244;24089;-79
2022/11/06 08:30:34;;;;;;;7.17;6.43;;;15.10;99.90;16.30;100618;;;;588000;243;24104;-79
2022/11/06 08:33:01;;;;;;;6.10;5.30;;;16.90;99.90;17.80;100632;;;;588309;243;24043;-78
2022/11/06 08:35:30;;;;;;;4.83;4.43;;;19.60;99.90;19.00;100634;;;;588849;244;24064;-79
2022/11/06 08:37:58;;;;;;;7.57;4.73;;;19.50;99.90;19.60;100638;;;;580434;244;24048;-80
2022/11/06 08:40:26;;;;;;;6.27;4.43;;;20.40;99.90;20.60;100634;;;;588897;243;24045;-78
2022/11/06 08:42:54;;;;;;;5.47;4.50;;;21.20;99.90;21.50;100638;;;;588734;243;24072;-78
2022/11/06 08:45:22;;;;;;;5.53;4.03;;;22.30;99.90;22.30;100644;;;;579490;244;24202;-76
2022/11/06 08:47:50;;;;;;;5.57;4.37;;;23.30;99.90;22.90;100645;;;;588627;244;24049;-77
2022/11/06 08:50:18;;;;;;;4.87;4.43;;;24.10;99.90;23.60;100645;;;;588501;244;24072;-77
2022/11/06 08:52:46;;;;;;;7.27;4.80;;;24.80;99.90;24.00;100638;;;;588218;244;23109;-79
2022/11/06 08:55:13;;;;;;;4.83;4.43;;;25.40;99.90;24.20;100635;;;;588222;244;23062;-77
2022/11/06 08:57:41;;;;;;;6.47;4.43;;;25.70;99.90;24.40;100630;;;;588397;244;24057;-78
2022/11/06 09:00:10;;;;;;;4.50;4.20;;;26.00;99.90;25.00;100618;;;;588406;244;23104;-78
2022/11/06 09:02:37;;;;;;;4.30;3.90;;;26.50;99.90;25.30;100616;;;;578031;244;23064;-83
2022/11/06 09:05:09;;;;;;;4.53;4.13;;;26.80;99.90;25.40;100611;;;;588941;244;24124;-79
2022/11/06 09:07:38;;;;;;;5.10;4.70;;;27.00;99.90;25.60;100617;;;;577805;244;23061;-82
2022/11/06 09:10:01;;;;;;;4.60;4.20;;;27.20;97.50;25.70;100608;;;;588113;244;23078;-81
2022/11/06 09:12:29;;;;;;;4.80;4.27;;;27.40;92.10;25.80;100607;;;;588920;244;24063;-79
2022/11/06 09:14:57;;;;;;;3.87;3.60;;;27.50;90.90;26.00;100610;;;;589000;244;23091;-82
2022/11/06 09:17:25;;;;;;;4.33;4.03;;;27.60;81.00;25.60;100620;;;;589161;244;24118;-81
2022/11/06 09:19:53;;;;;;;5.37;4.70;;;27.40;73.10;25.10;100612;;;;590660;242;23073;-79
2022/11/06 09:22:21;;;;;;;4.87;4.30;;;26.80;73.00;24.10;100614;;;;581120;244;23063;-82
2022/11/06 09:24:49;;;;;;;5.00;4.40;;;25.80;72.00;22.30;100615;;;;580442;244;23075;-83
2022/11/06 09:27:17;;;;;;;6.00;4.30;;;24.40;74.70;20.60;100614;;;;589142;243;24125;-82
2022/11/06 09:29:45;;;;;;;4.67;4.30;;;22.80;77.10;19.00;100613;;;;588938;243;24043;-81
2022/11/06 09:32:12;;;;;;;4.20;3.80;;;21.30;79.30;17.80;100604;;;;589266;243;24058;-82
2022/11/06 09:34:40;;;;;;;5.70;5.10;;;19.80;84.60;16.70;100591;;;;588985;243;23064;-82
2022/11/06 09:37:08;;;;;;;6.03;4.20;;;18.50;90.50;15.70;100594;;;;588792;243;24049;-81
2022/11/06 09:39:36;;;;;;;3.97;3.00;;;17.30;91.70;14.80;100598;;;;588350;244;24066;-82
2022/11/06 09:42:19;;;;;;;4.17;3.60;;;16.30;93.40;14.10;100588;;;;588830;244;24062;-83
2022/11/06 09:45:08;;;;;;;2.93;2.60;;;15.30;95.20;13.20;100586;;;;577496;244;24106;-79
2022/11/06 09:47:36;;;;;;;3.40;3.10;;;14.30;97.20;12.50;100573;;;;580425;246;24260;-83
2022/11/06 09:50:04;;;;;;;4.37;3.20;;;12.90;99.90;12.00;100581;;;;576789;244;24066;-82
2022/11/06 09:52:35;;;;;;;7.20;3.73;;;12.80;99.90;11.60;100568;;;;588453;243;24065;-82
2022/11/06 09:55:03;;;;;;;4.50;3.73;;;12.40;99.90;11.20;100577;;;;579178;244;24068;-83
2022/11/06 09:57:55;;;;;;;5.73;3.40;;;12.00;99.90;10.80;100573;;;;579090;244;24056;-83
2022/11/06 10:00:23;;;;;;;5.80;3.27;;;11.60;99.90;10.50;100574;;;;566171;244;24107;-83
2022/11/06 10:02:51;;;;;;;4.20;3.03;;;11.30;99.90;10.30;100564;;;;587987;244;24119;-84
2022/11/06 10:05:25;;;;;;;3.47;3.17;;;11.10;99.90;10.10;100557;;;;582446;244;24098;-83
2022/11/06 10:07:59;;;;;;;3.57;3.03;;;10.90;99.90;9.90;100559;;;;579135;244;24080;-79
2022/11/06 10:10:35;;;;;;;4.33;3.20;;;10.70;99.90;9.80;100553;;;;578959;244;24073;-83
2022/11/06 10:13:21;;;;;;;4.47;2.90;;;10.50;99.90;9.70;100551;;;;579234;244;24093;-82
2022/11/06 10:16:01;;;;;;;5.13;3.43;;;10.40;99.90;9.60;100559;;;;559963;249;24107;-77
2022/11/06 10:19:03;;;;;;;3.90;2.97;;;10.20;99.90;9.50;100553;;;;576995;244;24116;-79
2022/11/06 10:21:48;;;;;;;6.33;2.90;;;10.20;99.90;9.40;100546;;;;565744;249;24090;-79
2022/11/06 10:24:44;;;;;;;5.63;2.80;;;10.00;99.90;9.20;100544;;;;579100;244;24079;-79
2022/11/06 10:27:30;;;;;;;4.70;2.73;;;9.90;99.90;9.10;100548;;;;579346;244;24073;-78
2022/11/06 10:30:14;;;;;;;5.13;3.20;;;9.90;99.90;9.00;100546;;;;566621;249;24131;-77
2022/11/06 10:32:51;;;;;;;5.87;3.60;;;9.80;99.90;8.90;100549;;;;588959;243;24108;-77
2022/11/06 10:35:22;;;;;;;4.43;3.00;;;9.70;99.90;8.90;100549;;;;579775;243;24086;-79
2022/11/06 10:38:14;;;;;;;4.53;3.40;;;9.60;99.90;8.80;100549;;;;579626;244;24086;-79
2022/11/06 10:40:44;;;;;;;4.20;3.13;;;9.50;99.90;8.80;100547;;;;579685;244;24060;-79
2022/11/06 10:43:30;;;;;;;4.13;2.77;;;9.50;99.90;8.70;100534;;;;579683;244;24072;-77
2022/11/06 10:46:19;;;;;;;5.30;3.07;;;9.50;99.90;8.70;100531;;;;579531;244;24055;-79
2022/11/06 10:48:47;;;;;;;5.37;3.47;;;9.40;99.90;8.70;100540;;;;588275;244;24073;-79
2022/11/06 10:51:41;;;;;;;2.83;2.50;;;9.40;99.90;8.70;100535;;;;579137;244;24054;-77
2022/11/06 10:54:38;;;;;;;5.77;2.60;;;9.40;99.90;8.60;100534;;;;579446;244;24093;-78
2022/11/06 10:57:12;;;;;;;2.67;2.40;;;9.40;99.90;8.60;100527;;;;579194;244;24107;-79
2022/11/06 10:59:39;;;;;;;2.73;2.53;;;9.40;99.90;8.60;100520;;;;565547;248;24159;-78
2022/11/06 11:02:31;;;;;;;3.30;2.70;;;9.40;99.90;8.60;100516;;;;579900;244;24054;-78
2022/11/06 11:04:59;;;;;;;6.87;3.63;;;9.40;99.90;8.60;100509;;;;589397;244;25275;-79
2022/11/06 11:07:30;;;;;;;3.67;2.60;;;9.30;99.90;8.60;100505;;;;567662;249;24092;-78
2022/11/06 11:10:02;;;;;;;4.00;2.10;;;9.40;99.90;8.60;100501;;;;580448;244;24058;-77
2022/11/06 11:12:33;;;;;;;3.60;2.73;;;9.40;99.90;8.70;100499;;;;580008;244;24062;-79
2022/11/06 11:15:03;;;;;;;3.83;2.50;;;9.40;99.90;8.70;100504;;;;579785;244;24085;-79
2022/11/06 11:17:32;;;;;;;3.33;2.43;;;9.40;99.90;8.70;100504;;;;575377;244;24077;-79
2022/11/06 11:20:01;;;;;;;3.60;2.47;;;9.40;99.90;8.70;100491;;;;587480;244;26297;-78
2022/11/06 11:22:28;;;;;;;3.47;2.67;;;9.50;99.90;8.70;100491;;;;587607;244;24075;-78
2022/11/06 11:25:02;;;;;;;7.47;3.30;;;9.50;99.90;8.80;100488;;;;587555;244;24078;-78
2022/11/06 11:27:32;;;;;;;7.60;2.60;;;9.50;99.90;8.80;100487;;;;587500;244;24202;-77
2022/11/06 11:30:00;;;;;;;3.10;2.80;;;9.50;99.90;8.80;100477;;;;565664;249;24114;-78
2022/11/06 11:32:31;;;;;;;3.73;2.80;;;9.50;99.90;8.80;100482;;;;565966;247;24136;-81
2022/11/06 11:34:56;;;;;;;3.23;2.47;;;9.60;99.90;8.90;100476;;;;578253;244;24089;-79
2022/11/06 11:37:30;;;;;;;4.53;2.60;;;9.60;99.90;8.80;100479;;;;578462;244;24130;-77
2022/11/06 11:39:55;;;;;;;7.67;2.43;;;9.60;99.90;8.90;100473;;;;578293;244;24100;-81
2022/11/06 11:42:29;;;;;;;2.57;2.20;;;9.60;99.90;8.90;100480;;;;589459;242;24082;-79
2022/11/06 11:45:09;;;;;;;5.73;2.50;;;9.60;99.90;8.90;100466;;;;567707;249;24108;-83
2022/11/06 11:47:37;;;;;;;3.07;2.43;;;9.60;99.90;8.90;100463;;;;588947;243;24084;-79